Time;durP1;ratioP1;P1;durP2;ratioP2;P2;SDS_P1;SDS_P2;PMS_P1;PMS_P2;Temp;Humidity;BMP_temperature;BMP_pressure;BME280_temperature;BME280_humidity;BME280_pressure;Samples;Min_cycle;Max_cycle;Signal;HPM_P1;HPM_P2
2021/01/15 00:01:22;;;;;;;17.70;5.72;;;25.70;87.60;;;;;;5117998;27;20372;-85
2021/01/15 00:03:50;;;;;;;16.40;5.32;;;25.90;89.10;;;;;;5110910;27;20430;-84
2021/01/15 00:06:22;;;;;;;15.47;4.97;;;26.20;86.90;;;;;;5115779;27;20510;-82
2021/01/15 00:08:49;;;;;;;13.52;4.75;;;26.60;85.30;;;;;;5126784;27;20427;-85
2021/01/15 00:11:31;;;;;;;16.60;5.35;;;26.80;84.20;;;;;;5129755;27;20719;-83
2021/01/15 00:14:00;;;;;;;13.98;4.95;;;26.90;83.90;;;;;;5113993;27;20748;-83
2021/01/15 00:16:30;;;;;;;14.85;5.15;;;27.00;85.60;;;;;;5110398;28;20885;-83
2021/01/15 00:18:59;;;;;;;14.27;5.13;;;27.00;85.50;;;;;;5104824;28;20418;-84
2021/01/15 00:21:30;;;;;;;14.73;5.10;;;27.10;80.30;;;;;;5104746;28;20404;-84
2021/01/15 00:23:59;;;;;;;16.48;5.47;;;27.40;82.20;;;;;;5077881;28;20812;-84
2021/01/15 00:26:28;;;;;;;15.25;5.00;;;27.80;79.10;;;;;;5092172;28;20465;-83
2021/01/15 00:28:56;;;;;;;11.93;4.87;;;27.70;79.00;;;;;;5104638;28;20373;-85
2021/01/15 00:31:48;;;;;;;15.90;5.57;;;28.00;78.10;;;;;;5093244;28;20412;-85
2021/01/15 00:34:17;;;;;;;14.35;5.22;;;28.20;79.00;;;;;;5104505;28;20402;-85
2021/01/15 00:36:45;;;;;;;12.85;4.82;;;28.40;78.90;;;;;;5105576;28;20888;-84
2021/01/15 00:39:14;;;;;;;13.88;5.50;;;28.50;76.90;;;;;;5103884;28;20405;-84
2021/01/15 00:41:43;;;;;;;14.32;5.10;;;28.80;76.30;;;;;;5108777;28;20447;-83
2021/01/15 00:44:11;;;;;;;14.10;4.70;;;28.70;75.00;;;;;;5106203;28;20904;-84
2021/01/15 00:46:48;;;;;;;15.40;5.10;;;28.80;76.50;;;;;;5097475;27;20400;-84
2021/01/15 00:49:16;;;;;;;13.20;5.10;;;29.30;74.10;;;;;;5102496;28;20770;-83
2021/01/15 00:51:54;;;;;;;14.35;5.22;;;29.80;77.30;;;;;;5102875;28;20483;-84
2021/01/15 00:54:21;;;;;;;12.52;4.88;;;30.20;71.50;;;;;;5097042;28;20380;-83
2021/01/15 00:56:48;;;;;;;11.07;4.45;;;30.20;71.00;;;;;;5095535;28;20388;-83
2021/01/15 00:59:15;;;;;;;13.75;5.60;;;30.50;68.60;;;;;;5099513;28;20985;-84
2021/01/15 01:01:42;;;;;;;14.03;5.57;;;30.90;71.90;;;;;;5083768;28;20396;-84
2021/01/15 01:04:09;;;;;;;16.23;5.40;;;31.00;66.50;;;;;;5108642;28;20395;-84
2021/01/15 01:06:36;;;;;;;14.07;5.07;;;30.80;68.40;;;;;;5097868;28;20394;-83
2021/01/15 01:09:03;;;;;;;13.30;5.50;;;30.70;71.60;;;;;;5101276;28;20492;-84
2021/01/15 01:11:32;;;;;;;10.30;4.65;;;30.40;68.40;;;;;;5101333;28;20402;-84
2021/01/15 01:14:00;;;;;;;13.25;5.00;;;30.50;70.20;;;;;;5098524;28;20394;-84
2021/01/15 01:16:27;;;;;;;10.85;4.68;;;30.50;69.00;;;;;;5082901;28;20471;-84
2021/01/15 01:18:55;;;;;;;12.57;4.85;;;30.40;68.00;;;;;;5093853;28;20914;-85
2021/01/15 01:21:23;;;;;;;13.57;5.50;;;30.00;70.10;;;;;;5096898;28;20496;-84
2021/01/15 01:23:52;;;;;;;15.98;5.38;;;29.70;74.10;;;;;;5106778;28;20387;-84
2021/01/15 01:26:20;;;;;;;14.52;5.28;;;29.30;72.30;;;;;;5104148;28;20494;-85
2021/01/15 01:28:50;;;;;;;13.27;5.80;;;28.70;74.80;;;;;;5100481;28;20482;-84
2021/01/15 01:31:18;;;;;;;17.45;5.10;;;28.50;73.30;;;;;;5094871;28;20738;-84
2021/01/15 01:33:46;;;;;;;15.00;5.32;;;28.50;75.40;;;;;;5108789;28;20379;-85
2021/01/15 01:36:13;;;;;;;16.60;5.80;;;28.50;74.40;;;;;;5101859;28;20394;-83
2021/01/15 01:38:49;;;;;;;10.65;4.80;;;28.30;75.10;;;;;;5105092;28;20396;-86
2021/01/15 01:41:16;;;;;;;11.77;5.30;;;28.30;77.60;;;;;;5112116;28;20442;-86
2021/01/15 01:43:43;;;;;;;15.07;5.53;;;28.30;79.00;;;;;;5113637;28;20432;-83
2021/01/15 01:46:11;;;;;;;14.17;4.80;;;28.30;78.40;;;;;;5108437;28;20475;-84
2021/01/15 01:48:39;;;;;;;12.60;5.33;;;28.00;75.90;;;;;;5109818;28;20410;-83
2021/01/15 01:51:07;;;;;;;11.25;5.40;;;28.20;74.90;;;;;;5108400;28;20372;-84
2021/01/15 01:53:37;;;;;;;11.23;5.00;;;28.50;74.40;;;;;;5102850;28;20386;-84
2021/01/15 01:56:06;;;;;;;14.10;5.10;;;28.50;77.10;;;;;;5080252;28;20429;-84
2021/01/15 01:58:34;;;;;;;12.73;5.30;;;28.40;75.20;;;;;;5103760;28;20390;-86
2021/01/15 02:01:04;;;;;;;14.40;5.13;;;28.30;77.40;;;;;;5106945;28;20861;-85
2021/01/15 02:03:31;;;;;;;11.93;5.45;;;28.10;76.90;;;;;;5096434;28;20492;-84
2021/01/15 02:05:58;;;;;;;12.20;5.20;;;28.00;77.30;;;;;;5101380;28;20403;-84
2021/01/15 02:08:42;;;;;;;10.43;5.22;;;28.10;78.30;;;;;;5109388;28;20749;-87
2021/01/15 02:11:43;;;;;;;14.30;5.50;;;28.30;82.50;;;;;;5089194;28;20383;-83
2021/01/15 02:14:25;;;;;;;13.17;5.70;;;28.40;78.60;;;;;;5087243;28;20439;-84
2021/01/15 02:16:54;;;;;;;11.75;5.20;;;28.10;75.60;;;;;;5109521;28;20789;-84
2021/01/15 02:19:26;;;;;;;12.13;5.40;;;27.80;78.40;;;;;;5101828;28;20400;-84
2021/01/15 02:22:18;;;;;;;15.77;5.28;;;27.90;80.60;;;;;;5100662;28;20375;-85
2021/01/15 02:25:09;;;;;;;15.70;5.97;;;28.00;82.70;;;;;;5099215;28;20430;-84
2021/01/15 02:28:13;;;;;;;18.52;5.88;;;28.10;82.20;;;;;;5098904;28;20738;-85
2021/01/15 02:30:40;;;;;;;19.45;5.93;;;28.30;80.90;;;;;;5107055;28;20462;-84
2021/01/15 02:33:40;;;;;;;14.73;5.63;;;28.30;81.00;;;;;;5103475;28;20409;-82
2021/01/15 02:36:37;;;;;;;12.75;5.65;;;28.00;80.50;;;;;;5103550;28;20710;-83
2021/01/15 02:39:10;;;;;;;13.88;5.57;;;27.90;83.30;;;;;;5102099;28;20395;-83
2021/01/15 02:41:39;;;;;;;16.40;5.75;;;28.00;82.10;;;;;;5088179;28;20467;-83
2021/01/15 02:44:10;;;;;;;14.23;5.13;;;28.10;81.70;;;;;;5098514;28;20379;-83
2021/01/15 02:46:58;;;;;;;15.45;5.90;;;28.10;82.50;;;;;;5099689;28;20411;-84
2021/01/15 02:49:26;;;;;;;14.20;5.60;;;27.90;81.30;;;;;;5100569;28;20428;-82
2021/01/15 02:51:54;;;;;;;15.52;5.80;;;27.80;81.90;;;;;;5094990;28;20397;-84
2021/01/15 02:54:21;;;;;;;13.15;5.45;;;27.90;80.90;;;;;;5100453;28;20385;-83
2021/01/15 02:56:48;;;;;;;13.18;5.38;;;28.20;81.40;;;;;;5102116;28;20396;-83
2021/01/15 02:59:17;;;;;;;17.92;5.70;;;28.20;80.00;;;;;;5092850;28;20423;-83
2021/01/15 03:02:14;;;;;;;14.20;5.60;;;28.30;81.60;;;;;;5107483;28;20397;-82
2021/01/15 03:05:07;;;;;;;15.63;6.10;;;28.40;79.20;;;;;;5102337;28;20419;-83
2021/01/15 03:07:34;;;;;;;13.50;5.50;;;28.40;81.20;;;;;;5107504;28;20465;-84
2021/01/15 03:10:04;;;;;;;16.20;5.70;;;28.40;81.40;;;;;;5099286;28;20386;-82
2021/01/15 03:12:32;;;;;;;16.35;5.60;;;28.50;79.00;;;;;;5089654;28;20392;-82
2021/01/15 03:15:01;;;;;;;18.73;5.80;;;28.40;79.10;;;;;;5090269;28;20383;-82
2021/01/15 03:17:35;;;;;;;14.00;5.25;;;28.20;79.80;;;;;;5111550;28;20379;-83
2021/01/15 03:20:04;;;;;;;15.13;5.87;;;28.40;80.50;;;;;;5110708;28;22031;-83
2021/01/15 03:22:33;;;;;;;17.63;5.72;;;28.60;79.10;;;;;;5092145;28;20399;-84
2021/01/15 03:25:01;;;;;;;15.38;6.00;;;28.50;81.40;;;;;;5104052;28;20384;-82
2021/01/15 03:27:55;;;;;;;12.57;5.50;;;28.50;78.20;;;;;;5102478;28;20547;-81
2021/01/15 03:30:25;;;;;;;12.10;5.07;;;28.50;80.30;;;;;;5094090;28;20390;-83
2021/01/15 03:32:54;;;;;;;14.75;5.78;;;28.60;79.40;;;;;;5108373;28;20393;-83
2021/01/15 03:35:24;;;;;;;12.93;5.57;;;28.70;81.70;;;;;;5110075;28;20459;-82
2021/01/15 03:38:03;;;;;;;15.37;5.77;;;28.90;79.60;;;;;;5112179;28;20370;-83
2021/01/15 03:40:40;;;;;;;16.30;5.55;;;28.80;79.50;;;;;;5112044;28;20861;-83
2021/01/15 03:43:22;;;;;;;14.63;5.47;;;28.80;83.10;;;;;;5112118;28;20408;-83
2021/01/15 03:45:51;;;;;;;18.10;5.22;;;28.80;80.90;;;;;;5112560;28;20413;-82
2021/01/15 03:48:22;;;;;;;19.60;5.50;;;28.60;82.20;;;;;;5111839;28;20405;-82
2021/01/15 03:50:52;;;;;;;15.57;5.32;;;28.30;82.50;;;;;;5094673;28;20413;-82
2021/01/15 03:53:19;;;;;;;20.67;5.97;;;27.80;84.10;;;;;;5106311;28;20401;-83
2021/01/15 03:55:48;;;;;;;20.85;5.20;;;27.40;86.00;;;;;;5094569;28;20747;-82
2021/01/15 03:58:15;;;;;;;18.33;5.57;;;27.40;85.20;;;;;;5107965;28;20893;-82
2021/01/15 04:00:42;;;;;;;17.15;5.60;;;27.40;85.50;;;;;;5102653;28;20456;-83
2021/01/15 04:03:09;;;;;;;18.13;5.50;;;27.10;88.00;;;;;;5110735;28;20877;-82
2021/01/15 04:05:36;;;;;;;21.23;5.28;;;27.10;86.50;;;;;;5111803;28;20406;-82
2021/01/15 04:08:04;;;;;;;17.35;5.82;;;27.20;90.20;;;;;;5111764;28;21032;-82
2021/01/15 04:10:34;;;;;;;22.85;5.63;;;27.30;87.70;;;;;;5106972;28;20398;-81
2021/01/15 04:13:01;;;;;;;18.55;5.80;;;27.30;88.10;;;;;;5111599;28;20367;-82
2021/01/15 04:15:28;;;;;;;18.38;5.72;;;27.20;88.90;;;;;;5112231;28;21015;-82
2021/01/15 04:17:59;;;;;;;18.10;5.95;;;27.10;87.40;;;;;;5111503;28;20841;-82
2021/01/15 04:20:26;;;;;;;19.27;6.28;;;26.70;88.70;;;;;;5111452;28;20383;-82
2021/01/15 04:22:53;;;;;;;17.63;5.57;;;26.70;90.30;;;;;;5111198;28;20366;-82
2021/01/15 04:25:20;;;;;;;22.88;6.28;;;26.50;89.50;;;;;;5110361;28;20402;-81
2021/01/15 04:27:47;;;;;;;19.08;5.88;;;26.10;89.90;;;;;;5104643;28;20406;-81
2021/01/15 04:30:15;;;;;;;21.13;6.07;;;25.90;90.70;;;;;;5101840;28;20399;-83
2021/01/15 04:32:46;;;;;;;17.63;6.05;;;26.00;90.80;;;;;;5103427;28;20382;-81
2021/01/15 04:35:15;;;;;;;18.33;5.78;;;26.00;90.40;;;;;;5111304;28;20436;-82
2021/01/15 04:37:42;;;;;;;13.00;5.43;;;25.80;90.90;;;;;;5109845;28;20378;-82
2021/01/15 04:40:10;;;;;;;17.20;5.85;;;25.70;90.90;;;;;;5107569;28;21106;-82
2021/01/15 04:42:42;;;;;;;21.00;6.25;;;25.80;90.70;;;;;;5106629;28;20400;-82
2021/01/15 04:45:12;;;;;;;18.83;6.22;;;25.60;90.20;;;;;;5095208;28;20410;-82
2021/01/15 04:47:46;;;;;;;15.77;6.70;;;25.60;90.60;;;;;;5109421;28;20394;-82
2021/01/15 04:50:15;;;;;;;14.75;6.15;;;25.70;90.90;;;;;;5097772;28;20941;-82
2021/01/15 04:52:53;;;;;;;17.65;6.90;;;25.70;89.40;;;;;;5105823;28;20394;-82
2021/01/15 04:55:26;;;;;;;14.43;6.55;;;25.70;90.00;;;;;;5104528;28;20445;-82
2021/01/15 04:57:55;;;;;;;16.75;6.68;;;25.60;90.90;;;;;;5096874;28;20479;-82
2021/01/15 05:00:26;;;;;;;16.65;6.57;;;25.60;90.10;;;;;;5100574;28;20869;-82
2021/01/15 05:02:54;;;;;;;15.32;6.38;;;25.50;90.70;;;;;;5107275;28;20426;-82
2021/01/15 05:05:23;;;;;;;15.73;5.93;;;25.60;91.30;;;;;;5110668;28;20406;-81
2021/01/15 05:08:13;;;;;;;16.13;6.65;;;25.80;90.50;;;;;;5107374;28;20458;-83
2021/01/15 05:10:48;;;;;;;15.07;6.93;;;25.60;90.30;;;;;;5107739;28;20392;-82
2021/01/15 05:13:17;;;;;;;13.57;6.33;;;25.50;90.70;;;;;;5111683;28;20388;-82
2021/01/15 05:15:45;;;;;;;15.33;6.70;;;25.60;90.60;;;;;;5111242;28;20431;-82
2021/01/15 05:18:14;;;;;;;13.80;6.75;;;25.70;90.30;;;;;;5109019;28;20409;-82
2021/01/15 05:20:41;;;;;;;13.20;6.40;;;25.60;91.20;;;;;;5109948;28;20740;-83
2021/01/15 05:23:10;;;;;;;14.18;6.95;;;25.60;90.90;;;;;;5110670;28;20374;-82
2021/01/15 05:25:48;;;;;;;17.08;7.20;;;25.50;91.20;;;;;;5110292;28;20814;-83
2021/01/15 05:28:25;;;;;;;15.73;6.40;;;25.60;91.90;;;;;;5110126;28;20420;-82
2021/01/15 05:30:58;;;;;;;14.35;6.47;;;25.70;91.20;;;;;;5110240;28;20410;-81
2021/01/15 05:33:25;;;;;;;15.95;6.30;;;25.70;91.40;;;;;;5110194;28;20741;-82
2021/01/15 05:35:53;;;;;;;14.27;6.10;;;25.70;91.40;;;;;;5110363;28;20857;-83
2021/01/15 05:38:22;;;;;;;15.63;6.50;;;25.60;91.40;;;;;;5106548;28;20398;-83
2021/01/15 05:40:57;;;;;;;19.50;6.55;;;25.60;91.50;;;;;;5089510;28;20376;-83
2021/01/15 05:43:26;;;;;;;16.40;6.30;;;25.50;91.60;;;;;;5089527;28;20471;-83
2021/01/15 05:46:14;;;;;;;16.10;6.38;;;25.40;92.00;;;;;;5094089;28;20399;-83
2021/01/15 05:48:46;;;;;;;16.42;6.75;;;25.40;91.70;;;;;;5101064;28;20889;-83
2021/01/15 05:51:40;;;;;;;16.58;6.80;;;25.60;92.00;;;;;;5098144;28;20378;-84
2021/01/15 05:54:09;;;;;;;16.17;7.22;;;25.60;91.70;;;;;;5087483;28;20374;-84
2021/01/15 05:56:38;;;;;;;17.58;7.15;;;25.60;91.60;;;;;;5103583;28;20407;-84
2021/01/15 05:59:08;;;;;;;16.70;7.30;;;25.60;91.30;;;;;;5094016;28;20392;-83
2021/01/15 06:01:49;;;;;;;15.25;6.18;;;25.60;91.80;;;;;;5105022;28;20378;-83
2021/01/15 06:04:32;;;;;;;19.88;7.72;;;25.50;91.30;;;;;;5109467;28;20952;-83
2021/01/15 06:07:01;;;;;;;18.40;7.07;;;25.40;92.20;;;;;;5109841;28;20373;-83
2021/01/15 06:09:28;;;;;;;18.80;7.03;;;25.20;91.60;;;;;;5108562;28;20375;-83
2021/01/15 06:12:22;;;;;;;14.97;7.40;;;25.10;92.10;;;;;;5109299;28;20370;-82
2021/01/15 06:14:58;;;;;;;18.35;7.30;;;25.00;92.40;;;;;;5109717;28;20470;-82
2021/01/15 06:17:26;;;;;;;20.00;7.45;;;25.10;92.60;;;;;;5108388;28;20395;-82
2021/01/15 06:19:56;;;;;;;17.90;7.75;;;25.10;92.60;;;;;;5108579;28;20852;-81
2021/01/15 06:22:32;;;;;;;18.50;7.28;;;25.10;92.60;;;;;;5108127;28;20414;-81
2021/01/15 06:25:02;;;;;;;15.77;6.80;;;25.00;92.80;;;;;;5101103;28;20515;-82
2021/01/15 06:27:55;;;;;;;15.70;7.50;;;24.90;92.70;;;;;;5084745;28;20387;-82
2021/01/15 06:30:26;;;;;;;20.80;7.65;;;24.80;93.10;;;;;;5106573;28;20378;-82
2021/01/15 06:32:55;;;;;;;17.58;7.22;;;25.00;93.30;;;;;;5092849;28;20381;-82
2021/01/15 06:35:27;;;;;;;16.15;7.78;;;25.00;93.20;;;;;;5088054;28;20353;-82
2021/01/15 06:38:05;;;;;;;18.73;7.63;;;25.00;93.30;;;;;;5094087;28;20446;-82
2021/01/15 06:40:37;;;;;;;16.05;7.28;;;25.00;93.20;;;;;;5108705;28;20832;-82
2021/01/15 06:43:10;;;;;;;20.63;7.93;;;25.10;93.00;;;;;;5101163;28;20481;-81
2021/01/15 06:45:41;;;;;;;20.63;7.63;;;25.10;93.10;;;;;;5098937;28;20411;-83
2021/01/15 06:48:11;;;;;;;21.75;7.72;;;25.00;93.00;;;;;;5109630;28;20438;-83
2021/01/15 06:50:44;;;;;;;18.48;7.80;;;24.90;93.20;;;;;;5092800;28;20866;-82
2021/01/15 06:53:28;;;;;;;18.13;7.68;;;24.90;93.40;;;;;;5107388;28;20461;-82
2021/01/15 06:56:06;;;;;;;20.02;8.68;;;24.90;93.20;;;;;;5104485;28;20439;-82
2021/01/15 06:58:40;;;;;;;20.87;8.80;;;24.90;93.50;;;;;;5090605;28;20908;-83
2021/01/15 07:01:25;;;;;;;15.73;8.20;;;25.00;93.50;;;;;;5102689;28;20390;-83
2021/01/15 07:03:58;;;;;;;17.00;8.27;;;25.00;93.10;;;;;;5095838;28;20385;-82
2021/01/15 07:06:32;;;;;;;19.85;8.73;;;24.80;93.30;;;;;;5106726;28;20388;-83
2021/01/15 07:09:01;;;;;;;22.23;8.65;;;24.70;93.90;;;;;;5107165;28;20746;-83
2021/01/15 07:11:30;;;;;;;19.00;8.55;;;24.70;93.90;;;;;;5089648;28;20373;-83
2021/01/15 07:14:05;;;;;;;23.35;8.98;;;24.70;93.90;;;;;;5082440;28;20405;-83
2021/01/15 07:16:35;;;;;;;23.42;9.07;;;24.70;93.80;;;;;;5090904;28;20376;-82
2021/01/15 07:19:20;;;;;;;19.08;9.52;;;24.60;94.20;;;;;;5088765;28;20369;-83
2021/01/15 07:22:02;;;;;;;22.80;9.90;;;24.60;94.60;;;;;;5099508;28;20389;-83
2021/01/15 07:24:39;;;;;;;18.05;10.07;;;24.70;94.40;;;;;;5088657;28;20424;-83
2021/01/15 07:27:08;;;;;;;20.13;9.82;;;24.70;94.10;;;;;;5088844;28;20381;-83
2021/01/15 07:29:44;;;;;;;18.33;10.73;;;24.70;94.20;;;;;;5088694;28;20383;-84
2021/01/15 07:32:30;;;;;;;18.55;9.95;;;24.70;94.50;;;;;;5088866;28;20389;-84
2021/01/15 07:35:01;;;;;;;20.48;10.57;;;24.70;94.30;;;;;;5094172;28;20411;-81
2021/01/15 07:37:30;;;;;;;17.50;10.55;;;24.60;94.50;;;;;;5101764;28;20424;-82
2021/01/15 07:40:04;;;;;;;21.40;11.25;;;24.60;94.60;;;;;;5097270;28;20406;-81
2021/01/15 07:42:57;;;;;;;23.15;11.68;;;24.50;94.80;;;;;;5108990;28;20416;-83
2021/01/15 07:45:27;;;;;;;18.33;10.95;;;24.40;95.00;;;;;;5094085;28;20407;-82
2021/01/15 07:47:55;;;;;;;20.60;11.73;;;24.40;94.90;;;;;;5094295;28;20889;-85
2021/01/15 07:50:35;;;;;;;24.00;11.98;;;24.30;95.10;;;;;;5107841;28;20884;-82
2021/01/15 07:53:20;;;;;;;22.67;12.48;;;24.20;95.40;;;;;;5089626;28;20423;-83
2021/01/15 07:55:47;;;;;;;24.98;12.20;;;24.20;95.50;;;;;;5105391;28;20811;-83
2021/01/15 07:58:16;;;;;;;20.00;12.20;;;24.10;95.80;;;;;;5106794;28;20410;-83
2021/01/15 08:00:44;;;;;;;21.33;11.90;;;24.10;96.40;;;;;;5108668;28;20749;-81
2021/01/15 08:03:12;;;;;;;19.93;12.53;;;24.10;95.80;;;;;;5105610;28;20385;-83
2021/01/15 08:05:40;;;;;;;23.38;12.57;;;24.10;96.30;;;;;;5104185;28;20414;-82
2021/01/15 08:08:09;;;;;;;24.77;12.95;;;24.00;96.50;;;;;;5106185;28;20744;-82
2021/01/15 08:10:45;;;;;;;23.35;13.23;;;24.00;96.50;;;;;;5093435;28;20400;-83
2021/01/15 08:13:32;;;;;;;22.83;12.88;;;23.90;96.80;;;;;;5092257;28;20364;-82
2021/01/15 08:16:04;;;;;;;21.75;13.23;;;23.90;96.90;;;;;;5098318;28;20414;-81
2021/01/15 08:18:32;;;;;;;22.52;12.85;;;23.90;97.20;;;;;;5101014;28;20451;-81
2021/01/15 08:20:59;;;;;;;25.33;13.50;;;23.90;97.10;;;;;;5100519;28;20408;-81
2021/01/15 08:23:28;;;;;;;27.88;13.15;;;23.90;97.00;;;;;;5103406;28;20473;-82
2021/01/15 08:26:04;;;;;;;22.20;13.20;;;23.90;97.00;;;;;;5101760;28;20402;-82
2021/01/15 08:28:34;;;;;;;24.65;13.13;;;23.90;97.10;;;;;;5096496;28;20462;-83
2021/01/15 08:31:08;;;;;;;24.63;13.20;;;23.80;97.20;;;;;;5097466;28;20456;-82
2021/01/15 08:33:36;;;;;;;23.92;13.30;;;23.80;97.50;;;;;;5111993;28;20387;-82
2021/01/15 08:36:04;;;;;;;24.10;13.32;;;23.80;97.70;;;;;;5103336;28;20935;-82
2021/01/15 08:38:40;;;;;;;24.33;13.60;;;23.80;98.00;;;;;;5109432;28;20406;-82
2021/01/15 08:41:27;;;;;;;23.77;13.20;;;23.70;98.00;;;;;;5100109;28;20406;-82
2021/01/15 08:43:55;;;;;;;27.02;14.68;;;23.60;98.00;;;;;;5101173;28;20474;-82
2021/01/15 08:46:24;;;;;;;30.17;14.57;;;23.60;98.30;;;;;;5098072;28;20431;-81
2021/01/15 08:48:51;;;;;;;25.90;13.57;;;23.70;98.20;;;;;;5089279;28;20414;-83
2021/01/15 08:51:24;;;;;;;27.15;13.07;;;23.60;98.30;;;;;;5090330;28;20377;-82
2021/01/15 08:54:05;;;;;;;25.27;13.48;;;23.60;98.20;;;;;;5091424;28;20726;-83
2021/01/15 08:56:46;;;;;;;26.33;12.60;;;23.60;98.30;;;;;;5091594;28;20377;-83
2021/01/15 08:59:26;;;;;;;28.65;13.48;;;23.50;98.50;;;;;;5091047;28;20717;-83
2021/01/15 09:01:58;;;;;;;24.85;12.63;;;23.50;98.60;;;;;;5090958;28;20392;-83
2021/01/15 09:04:35;;;;;;;27.52;14.18;;;23.40;98.80;;;;;;5090711;28;20404;-82
2021/01/15 09:07:04;;;;;;;28.17;14.77;;;23.40;99.00;;;;;;5091883;28;20407;-82
2021/01/15 09:09:33;;;;;;;27.42;14.00;;;23.30;99.20;;;;;;5090798;28;20438;-82
2021/01/15 09:12:09;;;;;;;24.00;13.83;;;23.30;99.20;;;;;;5101179;28;20391;-83
2021/01/15 09:14:37;;;;;;;27.40;14.40;;;23.20;99.50;;;;;;5109452;28;20468;-83
2021/01/15 09:17:06;;;;;;;27.92;13.68;;;23.20;99.70;;;;;;5108880;28;20387;-82
2021/01/15 09:19:34;;;;;;;24.90;13.25;;;23.10;99.70;;;;;;5115722;28;20450;-83
2021/01/15 09:22:08;;;;;;;22.98;13.15;;;23.10;99.80;;;;;;5099668;28;20381;-81
2021/01/15 09:24:37;;;;;;;25.90;13.65;;;23.00;99.90;;;;;;5100382;28;20394;-82
2021/01/15 09:27:08;;;;;;;21.50;13.40;;;23.00;99.90;;;;;;5094967;28;20396;-82
2021/01/15 09:29:38;;;;;;;24.80;14.33;;;23.00;99.90;;;;;;5101955;28;20444;-82
2021/01/15 09:32:05;;;;;;;29.27;14.05;;;22.90;99.90;;;;;;5104236;28;20635;-81
2021/01/15 09:34:35;;;;;;;28.45;15.60;;;22.90;99.90;;;;;;5107818;28;20360;-81
2021/01/15 09:37:03;;;;;;;24.27;14.40;;;22.90;99.90;;;;;;5103111;28;20416;-82
2021/01/15 09:39:30;;;;;;;25.43;14.87;;;22.80;99.90;;;;;;5105762;28;20420;-82
2021/01/15 09:41:58;;;;;;;30.90;15.23;;;22.90;99.90;;;;;;5098471;28;20388;-81
2021/01/15 09:44:28;;;;;;;26.05;15.55;;;22.80;99.90;;;;;;5091934;28;20443;-81
2021/01/15 09:47:00;;;;;;;26.45;15.10;;;22.80;99.90;;;;;;5091207;28;20412;-82
2021/01/15 09:49:28;;;;;;;26.65;14.43;;;22.80;99.90;;;;;;5088741;28;20372;-82
2021/01/15 09:51:55;;;;;;;28.63;14.90;;;22.70;99.90;;;;;;5106423;28;20386;-83
2021/01/15 09:54:22;;;;;;;32.92;16.30;;;22.70;99.90;;;;;;5089332;28;20394;-81
2021/01/15 09:56:49;;;;;;;26.63;15.20;;;22.60;99.90;;;;;;5097665;28;20896;-83
2021/01/15 09:59:20;;;;;;;31.00;16.27;;;22.60;99.90;;;;;;5101924;28;20408;-81
2021/01/15 10:01:47;;;;;;;29.52;16.23;;;22.60;99.90;;;;;;5095227;28;20865;-82
2021/01/15 10:04:15;;;;;;;31.88;15.68;;;22.50;99.90;;;;;;5103496;28;20402;-81
2021/01/15 10:06:44;;;;;;;28.38;15.48;;;22.50;99.90;;;;;;5089798;28;20821;-82
2021/01/15 10:09:13;;;;;;;25.77;15.80;;;22.50;99.90;;;;;;5087373;28;20383;-82
2021/01/15 10:11:46;;;;;;;27.10;14.23;;;22.50;99.90;;;;;;5080383;28;20797;-82
2021/01/15 10:14:15;;;;;;;23.92;14.55;;;22.50;99.90;;;;;;5105119;28;20726;-83
2021/01/15 10:16:44;;;;;;;26.48;15.80;;;22.50;99.90;;;;;;5107301;28;21155;-82
2021/01/15 10:19:11;;;;;;;23.67;15.55;;;22.60;99.90;;;;;;5098774;28;20388;-82
2021/01/15 10:21:41;;;;;;;29.30;15.00;;;22.60;99.90;;;;;;5088748;28;20442;-82
2021/01/15 10:24:09;;;;;;;28.48;15.57;;;22.50;99.90;;;;;;5094304;28;20384;-83
2021/01/15 10:26:38;;;;;;;29.83;15.25;;;22.50;99.90;;;;;;5106145;28;20374;-81
2021/01/15 10:29:10;;;;;;;30.67;15.88;;;22.40;99.90;;;;;;5098399;28;20852;-82
2021/01/15 10:31:45;;;;;;;24.00;14.30;;;22.40;99.90;;;;;;5099005;28;20459;-82
2021/01/15 10:34:12;;;;;;;28.45;15.20;;;22.40;99.90;;;;;;5092104;28;20376;-82
2021/01/15 10:36:43;;;;;;;26.00;15.35;;;22.30;99.90;;;;;;5096814;28;20398;-82
2021/01/15 10:39:11;;;;;;;28.83;15.95;;;22.30;99.90;;;;;;5101154;28;20443;-81
2021/01/15 10:41:41;;;;;;;29.48;15.27;;;22.20;99.90;;;;;;5099774;28;20394;-82
2021/01/15 10:44:09;;;;;;;25.52;14.68;;;22.20;99.90;;;;;;5105948;28;20439;-80
2021/01/15 10:46:42;;;;;;;28.00;14.33;;;22.20;99.90;;;;;;5099779;28;20745;-82
2021/01/15 10:49:14;;;;;;;28.27;13.90;;;22.20;99.90;;;;;;5104530;28;20394;-82
2021/01/15 10:51:42;;;;;;;23.13;13.15;;;22.10;99.90;;;;;;5096402;28;20485;-82
2021/01/15 10:54:10;;;;;;;21.83;12.57;;;22.10;99.90;;;;;;5097195;28;20379;-81
2021/01/15 10:56:40;;;;;;;21.83;13.07;;;22.10;99.90;;;;;;5103197;28;20466;-82
2021/01/15 10:59:09;;;;;;;24.10;11.30;;;22.00;99.90;;;;;;5099300;28;20746;-81
2021/01/15 11:01:43;;;;;;;25.60;11.50;;;22.00;99.90;;;;;;5099463;28;20901;-81
2021/01/15 11:04:12;;;;;;;23.27;11.50;;;22.00;98.80;;;;;;5104699;28;20386;-82
2021/01/15 11:06:40;;;;;;;22.35;11.00;;;22.00;99.00;;;;;;5086092;28;20518;-81
2021/01/15 11:09:16;;;;;;;17.55;10.10;;;22.00;97.90;;;;;;5088063;28;20388;-82
2021/01/15 11:11:47;;;;;;;20.77;9.63;;;22.00;97.20;;;;;;5105994;28;20598;-81
2021/01/15 11:14:20;;;;;;;17.90;9.13;;;21.90;96.90;;;;;;5093432;28;20383;-80
2021/01/15 11:16:47;;;;;;;15.02;7.32;;;21.90;95.80;;;;;;5098954;28;20575;-80
2021/01/15 11:19:15;;;;;;;12.32;7.03;;;21.90;93.80;;;;;;5104312;28;20371;-80
2021/01/15 11:21:42;;;;;;;11.73;6.23;;;21.90;93.70;;;;;;5092938;28;20507;-81
2021/01/15 11:24:10;;;;;;;11.15;6.00;;;21.90;92.00;;;;;;5102044;28;20371;-81
2021/01/15 11:26:38;;;;;;;11.20;5.38;;;21.80;91.60;;;;;;5106101;28;20387;-81
2021/01/15 11:29:07;;;;;;;7.70;3.88;;;21.80;90.90;;;;;;5092817;28;20384;-79
2021/01/15 11:31:34;;;;;;;13.00;3.50;;;21.70;88.30;;;;;;5085921;28;20502;-81
2021/01/15 11:34:02;;;;;;;8.65;3.60;;;21.70;84.50;;;;;;5085915;28;20406;-81
2021/01/15 11:36:32;;;;;;;9.68;3.25;;;21.70;86.00;;;;;;5085303;28;20429;-81
2021/01/15 11:39:06;;;;;;;5.93;2.83;;;21.70;84.50;;;;;;5088615;28;20391;-81
2021/01/15 11:41:33;;;;;;;5.55;2.63;;;21.70;82.20;;;;;;5089465;28;20433;-82
2021/01/15 11:44:01;;;;;;;7.53;2.22;;;21.60;80.70;;;;;;5070940;28;20921;-82
2021/01/15 11:46:28;;;;;;;4.68;2.03;;;21.60;78.90;;;;;;5089753;28;20485;-81
2021/01/15 11:48:55;;;;;;;7.72;1.90;;;21.60;77.20;;;;;;5089496;28;20422;-82
2021/01/15 11:51:23;;;;;;;10.47;2.17;;;21.60;77.00;;;;;;5091435;28;20376;-80
2021/01/15 11:53:49;;;;;;;5.88;1.83;;;21.50;75.00;;;;;;5089248;28;20942;-81
2021/01/15 11:56:19;;;;;;;4.93;1.70;;;21.50;74.40;;;;;;5101694;28;20400;-81
2021/01/15 11:58:46;;;;;;;4.63;1.10;;;21.50;73.50;;;;;;5099186;28;20371;-80
2021/01/15 12:01:15;;;;;;;7.28;1.40;;;21.40;69.60;;;;;;5089256;28;20854;-80
2021/01/15 12:03:42;;;;;;;4.25;1.17;;;21.40;68.90;;;;;;5106514;28;20402;-81
2021/01/15 12:06:09;;;;;;;7.63;1.30;;;21.40;64.30;;;;;;5109360;28;20394;-80
2021/01/15 12:08:36;;;;;;;8.40;1.52;;;21.50;63.30;;;;;;5109339;28;20410;-81
2021/01/15 12:11:04;;;;;;;11.82;2.10;;;21.70;56.20;;;;;;5109916;27;20382;-80
2021/01/15 12:13:31;;;;;;;6.83;1.40;;;22.10;53.20;;;;;;5117946;27;20453;-80
2021/01/15 12:15:58;;;;;;;3.90;0.95;;;22.20;50.80;;;;;;5101706;28;20399;-80
2021/01/15 12:18:26;;;;;;;12.15;1.00;;;22.20;49.10;;;;;;5090281;28;21179;-80
2021/01/15 12:20:53;;;;;;;6.97;0.90;;;22.20;48.90;;;;;;5091706;28;20395;-80
2021/01/15 12:23:21;;;;;;;7.38;0.75;;;22.10;48.20;;;;;;5096164;28;20829;-81
2021/01/15 12:25:49;;;;;;;8.82;0.88;;;22.00;46.20;;;;;;5090566;28;20822;-81
2021/01/15 12:28:17;;;;;;;10.10;1.00;;;22.10;45.90;;;;;;5090723;28;20375;-81
2021/01/15 12:30:46;;;;;;;11.38;0.90;;;22.00;46.50;;;;;;5086521;28;20451;-82
2021/01/15 12:33:15;;;;;;;7.60;1.08;;;22.00;45.70;;;;;;5104560;28;20487;-81
2021/01/15 12:35:43;;;;;;;4.72;0.75;;;21.90;44.50;;;;;;5104499;28;20735;-81
2021/01/15 12:38:17;;;;;;;8.85;0.80;;;21.90;45.80;;;;;;5104092;28;20461;-81
2021/01/15 12:40:47;;;;;;;7.55;0.88;;;21.80;44.10;;;;;;5098724;28;20489;-81
2021/01/15 12:43:14;;;;;;;6.85;0.70;;;21.80;45.80;;;;;;5110714;27;20389;-81
2021/01/15 12:45:44;;;;;;;6.88;0.90;;;21.70;46.70;;;;;;5111926;27;20817;-81
2021/01/15 12:48:13;;;;;;;6.35;0.98;;;21.50;46.40;;;;;;5109156;28;20605;-80
2021/01/15 12:50:41;;;;;;;6.10;0.80;;;21.50;46.80;;;;;;5096236;28;20391;-80
2021/01/15 12:53:08;;;;;;;9.50;0.70;;;21.40;47.10;;;;;;5096941;27;20396;-80
2021/01/15 12:55:35;;;;;;;4.68;0.70;;;21.30;47.30;;;;;;5099276;28;20386;-80
2021/01/15 12:58:02;;;;;;;9.10;0.88;;;21.20;47.80;;;;;;5100282;28;20746;-80